createdAt,value
2019-05-22T00:02:29.769Z,14.70
2019-05-22T00:05:24.849Z,14.80
2019-05-22T00:07:55.368Z,14.80
2019-05-22T00:10:28.342Z,14.70
2019-05-22T00:12:59.852Z,14.80
2019-05-22T00:15:30.426Z,14.70
2019-05-22T00:18:02.129Z,14.70
2019-05-22T00:20:32.008Z,14.70
2019-05-22T00:23:07.508Z,14.70
2019-05-22T00:25:38.102Z,14.70
2019-05-22T00:28:09.496Z,14.70
2019-05-22T00:30:42.022Z,14.70
2019-05-22T00:33:11.982Z,14.70
2019-05-22T00:35:42.119Z,14.60
2019-05-22T00:38:11.968Z,14.60
2019-05-22T00:40:44.761Z,14.60
2019-05-22T00:43:17.159Z,14.70
2019-05-22T00:45:49.769Z,14.70
2019-05-22T00:48:22.984Z,14.60
2019-05-22T00:51:22.081Z,14.60
2019-05-22T00:54:09.683Z,14.60
2019-05-22T00:56:54.324Z,14.60
2019-05-22T00:59:26.804Z,14.60
2019-05-22T01:02:01.846Z,14.60
2019-05-22T01:04:38.029Z,14.60
2019-05-22T01:07:17.677Z,14.60
2019-05-22T01:09:49.197Z,14.60
2019-05-22T01:12:27.146Z,14.60
2019-05-22T01:15:00.241Z,14.50
2019-05-22T01:17:34.321Z,14.60
2019-05-22T01:20:05.800Z,14.60
2019-05-22T01:22:36.886Z,14.60
2019-05-22T01:25:07.072Z,14.60
2019-05-22T01:27:38.935Z,14.50
2019-05-22T01:30:11.989Z,14.50
2019-05-22T01:32:45.524Z,14.50
2019-05-22T01:35:16.083Z,14.50
2019-05-22T01:37:45.516Z,14.50
2019-05-22T01:40:26.318Z,14.50
2019-05-22T01:42:58.898Z,14.50
2019-05-22T01:45:29.601Z,14.50
2019-05-22T01:48:06.663Z,14.40
2019-05-22T01:50:51.066Z,14.40
2019-05-22T01:53:23.953Z,14.40
2019-05-22T01:55:59.330Z,14.50
2019-05-22T01:58:31.631Z,14.50
2019-05-22T02:01:03.137Z,14.40
2019-05-22T02:03:34.387Z,14.40
2019-05-22T02:06:07.226Z,14.40
2019-05-22T02:08:41.593Z,14.30
2019-05-22T02:11:14.141Z,14.30
2019-05-22T02:13:48.785Z,14.30
2019-05-22T02:16:18.770Z,14.20
2019-05-22T02:18:50.982Z,14.20
2019-05-22T02:21:21.770Z,14.20
2019-05-22T02:23:52.722Z,14.10
2019-05-22T02:26:23.474Z,14.10
2019-05-22T02:28:54.803Z,14.00
2019-05-22T02:31:28.733Z,14.00
2019-05-22T02:34:08.103Z,14.00
2019-05-22T02:36:41.279Z,14.00
2019-05-22T02:39:21.499Z,14.00
2019-05-22T02:41:56.715Z,14.00
2019-05-22T02:44:27.035Z,14.00
2019-05-22T02:47:16.560Z,14.00
2019-05-22T02:49:32.202Z,13.90
2019-05-22T02:52:03.727Z,13.90
2019-05-22T02:54:34.362Z,13.90
2019-05-22T02:57:05.073Z,13.80
2019-05-22T02:59:34.498Z,13.80
2019-05-22T03:02:04.685Z,13.80
2019-05-22T03:05:00.949Z,13.90
2019-05-22T03:07:31.550Z,13.80
2019-05-22T03:10:02.527Z,13.80
2019-05-22T03:12:35.054Z,13.70
2019-05-22T03:15:07.760Z,13.70
2019-05-22T03:17:38.854Z,13.60
2019-05-22T03:20:13.115Z,13.60
2019-05-22T03:22:52.247Z,13.60
2019-05-22T03:25:23.439Z,13.60
2019-05-22T03:27:54.705Z,13.60
2019-05-22T03:30:27.708Z,13.60
2019-05-22T03:32:59.182Z,13.60
2019-05-22T03:35:30.382Z,13.60
2019-05-22T03:38:01.377Z,13.60
2019-05-22T03:40:31.983Z,13.50
2019-05-22T03:43:05.177Z,13.50
2019-05-22T03:45:36.221Z,13.50
2019-05-22T03:48:07.257Z,13.50
2019-05-22T03:50:37.507Z,13.50
2019-05-22T03:53:18.115Z,13.40
2019-05-22T03:55:48.917Z,13.40
2019-05-22T03:58:18.794Z,13.50
2019-05-22T04:00:50.579Z,13.40
2019-05-22T04:03:21.051Z,13.40
2019-05-22T04:05:52.592Z,13.40
2019-05-22T04:08:26.281Z,13.40
2019-05-22T04:11:05.207Z,13.40
2019-05-22T04:13:36.120Z,13.40
2019-05-22T04:16:07.936Z,13.40
2019-05-22T04:18:39.289Z,13.40
2019-05-22T04:21:08.794Z,13.40
2019-05-22T04:23:38.939Z,13.40
2019-05-22T04:26:11.964Z,13.40
2019-05-22T04:28:49.171Z,13.40
2019-05-22T04:31:19.216Z,13.40
2019-05-22T04:33:49.977Z,13.30
2019-05-22T04:36:20.028Z,13.30
2019-05-22T04:38:49.954Z,13.30
2019-05-22T04:41:19.690Z,13.20
2019-05-22T04:43:49.802Z,13.20
2019-05-22T04:46:20.122Z,13.20
2019-05-22T04:48:50.067Z,13.20
2019-05-22T04:51:31.549Z,13.20
2019-05-22T04:54:01.573Z,13.10
2019-05-22T04:56:31.817Z,13.10
2019-05-22T04:59:02.071Z,13.10
2019-05-22T05:01:32.416Z,13.00
2019-05-22T05:04:03.034Z,13.00
2019-05-22T05:06:35.663Z,12.90
2019-05-22T05:09:09.265Z,12.90
2019-05-22T05:11:39.299Z,12.90
2019-05-22T05:14:09.133Z,12.90
2019-05-22T05:16:38.869Z,12.90
2019-05-22T05:19:08.982Z,13.00
2019-05-22T05:21:39.595Z,12.90
2019-05-22T05:24:09.671Z,12.90
2019-05-22T05:26:40.405Z,12.90
2019-05-22T05:29:32.383Z,12.90
2019-05-22T05:32:03.621Z,12.90
2019-05-22T05:34:54.671Z,12.90
2019-05-22T05:37:25.249Z,12.90
2019-05-22T05:40:45.336Z,12.80
2019-05-22T05:43:19.115Z,12.80
2019-05-22T05:45:50.305Z,12.80
2019-05-22T05:48:24.179Z,12.80
2019-05-22T05:51:29.059Z,12.70
2019-05-22T05:54:06.351Z,12.80
2019-05-22T05:56:37.460Z,12.70
2019-05-22T05:59:08.407Z,12.70
2019-05-22T06:01:41.683Z,12.70
2019-05-22T06:04:11.864Z,12.70
2019-05-22T06:07:22.744Z,12.60
2019-05-22T06:10:34.462Z,12.70
2019-05-22T06:13:05.441Z,12.70
2019-05-22T06:15:47.185Z,12.70
2019-05-22T06:18:32.752Z,12.70
2019-05-22T06:21:04.161Z,12.70
2019-05-22T06:24:22.176Z,12.70
2019-05-22T06:27:23.190Z,12.80
2019-05-22T06:30:01.612Z,12.70
2019-05-22T06:33:08.534Z,12.70
2019-05-22T06:35:38.674Z,12.60
2019-05-22T06:38:35.483Z,12.70
2019-05-22T06:41:06.853Z,12.70
2019-05-22T06:44:23.351Z,12.60
2019-05-22T06:46:53.438Z,12.60
2019-05-22T06:49:49.169Z,12.60
2019-05-22T06:52:19.537Z,12.60
2019-05-22T06:54:49.504Z,12.50
2019-05-22T06:57:23.068Z,12.50
2019-05-22T07:00:11.496Z,12.50
2019-05-22T07:02:24.819Z,12.50
2019-05-22T07:04:54.960Z,12.50
2019-05-22T07:07:26.624Z,12.60
2019-05-22T07:09:56.848Z,12.60
2019-05-22T07:12:26.989Z,12.60
2019-05-22T07:15:23.169Z,12.50
2019-05-22T07:17:56.960Z,12.50
2019-05-22T07:20:28.551Z,12.50
2019-05-22T07:22:59.013Z,12.50
2019-05-22T07:25:29.199Z,12.50
2019-05-22T07:28:00.323Z,12.50
2019-05-22T07:30:29.731Z,12.50
2019-05-22T07:32:59.399Z,12.50
2019-05-22T07:35:45.597Z,12.50
2019-05-22T07:38:00.089Z,12.50
2019-05-22T07:40:30.134Z,12.50
2019-05-22T07:42:59.562Z,12.50
2019-05-22T07:45:30.601Z,12.40
2019-05-22T07:48:00.959Z,12.40
2019-05-22T07:50:32.859Z,12.50
2019-05-22T07:53:02.748Z,12.50
2019-05-22T07:55:33.942Z,12.40
2019-05-22T07:58:09.892Z,12.30
2019-05-22T08:00:50.214Z,12.30
2019-05-22T08:03:21.527Z,12.30
2019-05-22T08:05:54.892Z,12.20
2019-05-22T08:08:26.550Z,12.20
2019-05-22T08:10:57.973Z,12.20
2019-05-22T08:13:29.295Z,12.20
2019-05-22T08:15:58.929Z,12.20
2019-05-22T08:18:32.534Z,12.10
2019-05-22T08:21:01.953Z,12.10
2019-05-22T08:23:31.576Z,12.00
2019-05-22T08:26:01.326Z,11.90
2019-05-22T08:28:33.155Z,11.90
2019-05-22T08:31:04.289Z,11.80
2019-05-22T08:33:35.246Z,11.80
2019-05-22T08:36:05.214Z,11.80
2019-05-22T08:38:35.873Z,11.80
2019-05-22T08:41:09.858Z,11.80
2019-05-22T08:44:11.325Z,11.80
2019-05-22T08:46:12.928Z,11.80
2019-05-22T08:48:47.798Z,11.80
2019-05-22T08:51:16.211Z,11.80
2019-05-22T08:53:48.130Z,11.80
2019-05-22T08:56:18.351Z,11.80
2019-05-22T08:58:48.664Z,11.70
2019-05-22T09:01:18.224Z,11.70
2019-05-22T09:03:47.952Z,11.80
2019-05-22T09:06:17.365Z,11.70
2019-05-22T09:08:47.106Z,11.70
2019-05-22T09:11:16.827Z,11.70
2019-05-22T09:13:46.246Z,11.70
2019-05-22T09:16:16.591Z,11.70
2019-05-22T09:18:46.214Z,11.70
2019-05-22T09:21:16.605Z,11.70
2019-05-22T09:23:46.758Z,11.70
2019-05-22T09:26:17.346Z,11.70
2019-05-22T09:28:47.150Z,11.70
2019-05-22T09:31:17.965Z,11.70
2019-05-22T09:33:48.130Z,11.60
2019-05-22T09:36:17.667Z,11.70
2019-05-22T09:38:47.123Z,11.70
2019-05-22T09:41:17.154Z,11.80
2019-05-22T09:43:46.882Z,11.80
2019-05-22T09:46:16.599Z,11.70
2019-05-22T09:48:46.439Z,11.70
2019-05-22T09:51:15.923Z,11.70
2019-05-22T09:53:45.421Z,11.70
2019-05-22T09:56:14.958Z,11.60
2019-05-22T09:58:44.563Z,11.50
2019-05-22T10:01:14.312Z,11.50
2019-05-22T10:03:43.970Z,11.50
2019-05-22T10:06:13.815Z,11.60
2019-05-22T10:08:43.592Z,11.60
2019-05-22T10:11:13.032Z,11.60
2019-05-22T10:13:42.554Z,11.60
2019-05-22T10:16:12.177Z,11.50
2019-05-22T10:18:41.605Z,11.50
2019-05-22T10:21:11.223Z,11.40
2019-05-22T10:23:40.957Z,11.50
2019-05-22T10:26:11.059Z,11.50
2019-05-22T10:28:41.105Z,11.50
2019-05-22T10:31:11.946Z,11.60
2019-05-22T10:33:41.810Z,11.60
2019-05-22T10:36:11.803Z,11.70
2019-05-22T10:38:41.270Z,11.60
2019-05-22T10:41:10.726Z,11.60
2019-05-22T10:43:40.530Z,11.60
2019-05-22T10:46:10.422Z,11.60
2019-05-22T10:48:40.679Z,11.60
2019-05-22T10:51:10.466Z,11.60
2019-05-22T10:53:40.319Z,11.70
2019-05-22T10:56:10.041Z,11.70
2019-05-22T10:58:39.962Z,11.60
2019-05-22T11:01:10.381Z,11.50
2019-05-22T11:03:39.939Z,11.50
2019-05-22T11:06:09.419Z,11.50
2019-05-22T11:08:39.595Z,11.50
2019-05-22T11:11:10.276Z,11.50
2019-05-22T11:14:01.665Z,11.50
2019-05-22T11:16:31.142Z,11.60
2019-05-22T11:19:02.574Z,11.60
2019-05-22T11:21:32.885Z,11.50
2019-05-22T11:24:02.375Z,11.50
2019-05-22T11:26:32.312Z,11.50
2019-05-22T11:29:02.078Z,11.40
2019-05-22T11:31:31.607Z,11.40
2019-05-22T11:34:01.044Z,11.40
2019-05-22T11:36:31.230Z,11.40
2019-05-22T11:39:00.705Z,11.40
2019-05-22T11:41:30.488Z,11.40
2019-05-22T11:44:00.189Z,11.40
2019-05-22T11:46:30.772Z,11.40
2019-05-22T11:49:01.747Z,11.50
2019-05-22T11:51:31.237Z,11.50
2019-05-22T11:54:09.304Z,11.50
2019-05-22T11:56:31.773Z,11.50
2019-05-22T11:59:01.362Z,11.50
2019-05-22T12:01:30.859Z,11.50
2019-05-22T12:04:01.237Z,11.50
2019-05-22T12:06:31.779Z,11.50
2019-05-22T12:09:01.782Z,11.60
2019-05-22T12:11:31.311Z,11.60
2019-05-22T12:14:01.379Z,11.50
2019-05-22T12:16:31.157Z,11.60
2019-05-22T12:19:00.967Z,11.60
2019-05-22T12:21:30.510Z,11.70
2019-05-22T12:24:00.298Z,11.70
2019-05-22T12:26:30.134Z,11.70
2019-05-22T12:28:59.826Z,11.60
2019-05-22T12:31:29.802Z,11.60
2019-05-22T12:33:59.321Z,11.60
2019-05-22T12:36:29.146Z,11.60
2019-05-22T12:38:59.649Z,11.60
2019-05-22T12:41:30.145Z,11.60
2019-05-22T12:43:59.904Z,11.60
2019-05-22T12:46:31.158Z,11.50
2019-05-22T12:49:00.924Z,11.50
2019-05-22T12:51:32.938Z,11.50
2019-05-22T12:54:03.037Z,11.60
2019-05-22T12:56:32.885Z,11.50
2019-05-22T12:59:04.350Z,11.40
2019-05-22T13:01:34.748Z,11.30
2019-05-22T13:04:05.918Z,11.30
2019-05-22T13:06:35.985Z,11.30
2019-05-22T13:09:11.493Z,11.30
2019-05-22T13:11:41.986Z,11.30
2019-05-22T13:14:12.129Z,11.20
2019-05-22T13:16:47.939Z,11.20
2019-05-22T13:19:14.615Z,11.20
2019-05-22T13:21:46.302Z,11.20
2019-05-22T13:24:18.853Z,11.10
2019-05-22T13:26:49.994Z,11.10
2019-05-22T13:29:19.946Z,11.10
2019-05-22T13:31:51.347Z,11.20
2019-05-22T13:34:23.474Z,11.10
2019-05-22T13:36:56.711Z,11.20
2019-05-22T13:39:26.255Z,11.20
2019-05-22T13:41:56.144Z,11.20
2019-05-22T13:44:26.030Z,11.10
2019-05-22T13:46:56.221Z,11.10
2019-05-22T13:49:26.607Z,11.10
2019-05-22T13:51:56.447Z,11.10
2019-05-22T13:54:26.498Z,11.10
2019-05-22T13:56:57.822Z,11.00
2019-05-22T13:59:27.963Z,11.10
2019-05-22T14:01:57.903Z,11.00
2019-05-22T14:04:28.629Z,11.00
2019-05-22T14:07:00.873Z,11.00
2019-05-22T14:09:30.580Z,11.00
2019-05-22T14:12:00.510Z,11.10
2019-05-22T14:14:31.158Z,11.10
2019-05-22T14:17:01.484Z,11.10
2019-05-22T14:19:31.557Z,11.10
2019-05-22T14:22:01.007Z,11.10
2019-05-22T14:24:31.416Z,11.10
2019-05-22T14:27:01.267Z,11.10
2019-05-22T14:29:30.708Z,11.20
2019-05-22T14:32:00.249Z,11.10
2019-05-22T14:34:29.897Z,11.20
2019-05-22T14:37:00.464Z,11.10
2019-05-22T14:39:31.059Z,11.10
2019-05-22T14:42:01.495Z,11.10
2019-05-22T14:44:33.840Z,11.20
2019-05-22T14:47:13.197Z,11.20
2019-05-22T14:49:36.707Z,11.20
2019-05-22T14:52:07.666Z,11.20
2019-05-22T14:54:37.519Z,11.10
2019-05-22T14:57:07.416Z,11.20
2019-05-22T14:59:37.132Z,11.10
2019-05-22T15:02:08.224Z,11.10
2019-05-22T15:04:38.219Z,11.10
2019-05-22T15:07:08.407Z,11.20
2019-05-22T15:09:38.038Z,11.20
2019-05-22T15:12:07.838Z,11.20
2019-05-22T15:14:37.399Z,11.10
2019-05-22T15:17:07.459Z,11.00
2019-05-22T15:19:37.906Z,11.00
2019-05-22T15:22:09.190Z,11.00
2019-05-22T15:24:44.607Z,11.00
2019-05-22T15:27:14.714Z,11.00
2019-05-22T15:29:44.561Z,11.00
2019-05-22T15:32:16.078Z,11.00
2019-05-22T15:34:47.722Z,11.00
2019-05-22T15:37:20.806Z,10.90
2019-05-22T15:39:50.311Z,10.90
2019-05-22T15:42:40.729Z,10.90
2019-05-22T15:45:14.453Z,10.90
2019-05-22T15:47:54.770Z,10.90
2019-05-22T15:50:26.577Z,10.90
2019-05-22T15:53:03.945Z,10.90
2019-05-22T15:55:35.641Z,10.90
2019-05-22T15:58:08.292Z,10.90
2019-05-22T16:00:40.411Z,11.00
2019-05-22T16:03:13.665Z,10.90
2019-05-22T16:05:45.749Z,10.90
2019-05-22T16:08:17.262Z,10.90
2019-05-22T16:10:48.526Z,10.80
2019-05-22T16:13:20.229Z,10.80
2019-05-22T16:15:52.771Z,10.80
2019-05-22T16:18:26.134Z,10.70
2019-05-22T16:20:57.454Z,10.80
2019-05-22T16:23:28.710Z,10.80
2019-05-22T16:25:58.200Z,10.80
2019-05-22T16:28:31.868Z,10.80
2019-05-22T16:31:00.572Z,10.80
2019-05-22T16:33:30.618Z,10.80
2019-05-22T16:36:00.642Z,10.80
2019-05-22T16:38:31.560Z,10.80
2019-05-22T16:41:00.995Z,10.80
2019-05-22T16:43:48.146Z,10.90
2019-05-22T16:46:01.944Z,10.80
2019-05-22T16:48:31.580Z,10.80
2019-05-22T16:51:01.433Z,10.80
2019-05-22T16:53:31.791Z,10.80
2019-05-22T16:56:01.822Z,10.80
2019-05-22T16:58:32.557Z,10.70
2019-05-22T17:01:02.426Z,10.70
2019-05-22T17:03:33.067Z,10.60
2019-05-22T17:06:02.825Z,10.60
2019-05-22T17:08:33.142Z,10.70
2019-05-22T17:11:04.382Z,10.70
2019-05-22T17:13:34.137Z,10.70
2019-05-22T17:16:04.838Z,10.60
2019-05-22T17:18:46.987Z,10.70
2019-05-22T17:21:06.553Z,10.70
2019-05-22T17:23:36.050Z,10.70
2019-05-22T17:26:05.838Z,10.70
2019-05-22T17:28:35.820Z,10.60
2019-05-22T17:31:06.503Z,10.60
2019-05-22T17:33:36.900Z,10.60
2019-05-22T17:36:07.077Z,10.60
2019-05-22T17:38:36.826Z,10.60
2019-05-22T17:41:09.243Z,10.60
2019-05-22T17:43:41.607Z,10.60
2019-05-22T17:46:12.175Z,10.60
2019-05-22T17:48:42.981Z,10.60
2019-05-22T17:51:20.839Z,10.60
2019-05-22T17:53:50.482Z,10.60
2019-05-22T17:56:20.330Z,10.60
2019-05-22T17:58:50.138Z,10.60
2019-05-22T18:01:21.124Z,10.60
2019-05-22T18:03:51.433Z,10.60
2019-05-22T18:06:21.467Z,10.60
2019-05-22T18:08:51.057Z,10.50
2019-05-22T18:11:20.576Z,10.60
2019-05-22T18:14:08.435Z,10.60
2019-05-22T18:16:38.109Z,10.60
2019-05-22T18:19:08.721Z,10.60
2019-05-22T18:21:38.526Z,10.50
2019-05-22T18:24:17.768Z,10.50
2019-05-22T18:26:48.209Z,10.50
2019-05-22T18:29:19.874Z,10.50
2019-05-22T18:32:00.562Z,10.50
2019-05-22T18:34:30.789Z,10.60
2019-05-22T18:37:05.976Z,10.60
2019-05-22T18:40:01.758Z,10.60
2019-05-22T18:42:40.567Z,10.50
2019-05-22T18:45:28.223Z,10.50
2019-05-22T18:48:02.875Z,10.50
2019-05-22T18:50:38.580Z,10.50
2019-05-22T18:53:41.683Z,10.40
2019-05-22T18:56:16.091Z,10.40
2019-05-22T18:58:53.145Z,10.40
2019-05-22T19:01:31.260Z,10.40
2019-05-22T19:04:15.121Z,10.40
2019-05-22T19:06:56.037Z,10.40
2019-05-22T19:09:31.424Z,10.40
2019-05-22T19:12:07.691Z,10.50
2019-05-22T19:14:46.639Z,10.50
2019-05-22T19:17:28.318Z,10.50
2019-05-22T19:20:29.561Z,10.40
2019-05-22T19:23:01.980Z,10.50
2019-05-22T19:25:35.243Z,10.50
2019-05-22T19:28:11.497Z,10.50
2019-05-22T19:30:48.264Z,10.50
2019-05-22T19:33:30.668Z,10.50
2019-05-22T19:36:02.732Z,10.50
2019-05-22T19:38:38.126Z,10.50
2019-05-22T19:41:13.493Z,10.50
2019-05-22T19:43:58.792Z,10.40
2019-05-22T19:46:35.423Z,10.40
2019-05-22T19:49:08.246Z,10.40
2019-05-22T19:51:42.888Z,10.50
2019-05-22T19:54:18.800Z,10.50
2019-05-22T19:56:49.269Z,10.50
2019-05-22T19:59:18.926Z,10.40
2019-05-22T20:01:48.667Z,10.40
2019-05-22T20:04:18.753Z,10.40
2019-05-22T20:06:49.123Z,10.40
2019-05-22T20:09:19.518Z,10.50
2019-05-22T20:11:52.627Z,10.50
2019-05-22T20:14:22.994Z,10.50
2019-05-22T20:16:53.727Z,10.50
2019-05-22T20:19:23.249Z,10.50
2019-05-22T20:21:53.160Z,10.50
2019-05-22T20:24:22.850Z,10.40
2019-05-22T20:26:52.458Z,10.40
2019-05-22T20:29:22.069Z,10.40
2019-05-22T20:31:51.607Z,10.40
2019-05-22T20:34:21.420Z,10.40
2019-05-22T20:36:51.284Z,10.40
2019-05-22T20:39:20.713Z,10.40
2019-05-22T20:41:50.240Z,10.40
2019-05-22T20:44:20.341Z,10.40
2019-05-22T20:46:51.062Z,10.40
2019-05-22T20:49:21.374Z,10.40
2019-05-22T20:51:51.233Z,10.40
2019-05-22T20:54:20.717Z,10.40
2019-05-22T20:56:53.118Z,10.40
2019-05-22T20:59:24.351Z,10.40
2019-05-22T21:01:54.085Z,10.40
2019-05-22T21:04:25.116Z,10.40
2019-05-22T21:07:00.306Z,10.40
2019-05-22T21:09:29.907Z,10.40
2019-05-22T21:12:00.845Z,10.40
2019-05-22T21:14:30.348Z,10.30
2019-05-22T21:17:01.050Z,10.30
2019-05-22T21:19:31.609Z,10.30
2019-05-22T21:22:03.999Z,10.30
2019-05-22T21:24:36.229Z,10.30
2019-05-22T21:27:07.410Z,10.30
2019-05-22T21:29:37.035Z,10.30
2019-05-22T21:32:08.379Z,10.30
2019-05-22T21:34:39.259Z,10.30
2019-05-22T21:37:10.041Z,10.30
2019-05-22T21:39:40.254Z,10.30
2019-05-22T21:42:10.350Z,10.30
2019-05-22T21:44:39.993Z,10.30
2019-05-22T21:47:10.541Z,10.30
2019-05-22T21:49:40.121Z,10.30
2019-05-22T21:52:10.132Z,10.30
2019-05-22T21:54:39.983Z,10.30
2019-05-22T21:57:10.517Z,10.30
2019-05-22T21:59:40.715Z,10.30
2019-05-22T22:02:18.832Z,10.30
2019-05-22T22:04:48.705Z,10.30
2019-05-22T22:07:19.132Z,10.30
2019-05-22T22:09:49.605Z,10.30
2019-05-22T22:12:23.916Z,10.30
2019-05-22T22:14:53.462Z,10.20
2019-05-22T22:17:24.526Z,10.20
2019-05-22T22:19:54.639Z,10.20
2019-05-22T22:22:28.248Z,10.10
2019-05-22T22:24:58.986Z,10.10
2019-05-22T22:27:28.829Z,10.10
2019-05-22T22:29:58.257Z,10.10
2019-05-22T22:32:29.659Z,10.10
2019-05-22T22:34:59.116Z,10.10
2019-05-22T22:37:29.058Z,10.10
2019-05-22T22:40:00.164Z,10.00
2019-05-22T22:42:31.499Z,10.10
2019-05-22T22:45:03.718Z,10.00
2019-05-22T22:47:44.798Z,10.00
2019-05-22T22:50:16.630Z,10.00
2019-05-22T22:52:46.948Z,10.00
2019-05-22T22:55:19.145Z,10.00
2019-05-22T22:57:51.120Z,10.00
2019-05-22T23:00:27.211Z,10.00
2019-05-22T23:02:59.249Z,10.00
2019-05-22T23:05:29.858Z,9.90
2019-05-22T23:08:00.965Z,9.90
2019-05-22T23:10:31.411Z,9.90
2019-05-22T23:13:01.428Z,10.00
2019-05-22T23:15:32.075Z,9.90
2019-05-22T23:18:02.462Z,9.90
2019-05-22T23:20:30.287Z,9.90
2019-05-22T23:22:58.072Z,9.80
2019-05-22T23:25:27.873Z,9.80
2019-05-22T23:27:59.221Z,9.80
2019-05-22T23:30:29.039Z,9.80
2019-05-22T23:32:58.470Z,9.80
2019-05-22T23:35:30.328Z,9.80
2019-05-22T23:38:02.245Z,9.80
2019-05-22T23:40:34.314Z,9.80
2019-05-22T23:43:04.845Z,9.80
2019-05-22T23:45:35.635Z,9.80
2019-05-22T23:48:14.407Z,9.80
2019-05-22T23:50:44.697Z,9.80
2019-05-22T23:53:16.203Z,9.80
2019-05-22T23:55:46.745Z,9.80
2019-05-22T23:58:17.759Z,9.80
